sensor_id;sensor_type;location;lat;lon;timestamp;pressure;altitude;pressure_sealevel;temperature;humidity
13348;BME280;6743;49.934;9.138;2023-09-08T00:02:16;100670.00;;;18.66;100.00
13348;BME280;6743;49.934;9.138;2023-09-08T00:04:42;100671.44;;;18.62;100.00
13348;BME280;6743;49.934;9.138;2023-09-08T00:07:08;100659.44;;;18.51;100.00
13348;BME280;6743;49.934;9.138;2023-09-08T00:09:35;100667.28;;;18.53;100.00
13348;BME280;6743;49.934;9.138;2023-09-08T00:12:01;100665.62;;;18.52;100.00
13348;BME280;6743;49.934;9.138;2023-09-08T00:14:27;100676.78;;;18.48;100.00
13348;BME280;6743;49.934;9.138;2023-09-08T00:16:53;100674.28;;;18.47;100.00
13348;BME280;6743;49.934;9.138;2023-09-08T00:19:20;100676.97;;;18.47;100.00
13348;BME280;6743;49.934;9.138;2023-09-08T00:21:46;100684.63;;;18.43;100.00
13348;BME280;6743;49.934;9.138;2023-09-08T00:24:12;100682.16;;;18.42;100.00
13348;BME280;6743;49.934;9.138;2023-09-08T00:26:39;100681.75;;;18.38;100.00
13348;BME280;6743;49.934;9.138;2023-09-08T00:29:05;100677.81;;;18.34;100.00
13348;BME280;6743;49.934;9.138;2023-09-08T00:31:31;100673.91;;;18.37;100.00
13348;BME280;6743;49.934;9.138;2023-09-08T00:33:56;100669.94;;;18.33;100.00
13348;BME280;6743;49.934;9.138;2023-09-08T00:36:23;100674.91;;;18.29;100.00
13348;BME280;6743;49.934;9.138;2023-09-08T00:38:49;100675.09;;;18.28;100.00
13348;BME280;6743;49.934;9.138;2023-09-08T00:41:15;100678.81;;;18.27;100.00
13348;BME280;6743;49.934;9.138;2023-09-08T00:43:41;100664.37;;;18.21;100.00
13348;BME280;6743;49.934;9.138;2023-09-08T00:46:07;100662.09;;;18.12;100.00
13348;BME280;6743;49.934;9.138;2023-09-08T00:48:34;100670.56;;;18.15;100.00
13348;BME280;6743;49.934;9.138;2023-09-08T00:51:00;100665.56;;;18.05;100.00
13348;BME280;6743;49.934;9.138;2023-09-08T00:53:27;100674.25;;;18.07;100.00
13348;BME280;6743;49.934;9.138;2023-09-08T00:55:54;100677.75;;;18.08;100.00
13348;BME280;6743;49.934;9.138;2023-09-08T00:58:20;100680.66;;;18.06;100.00
13348;BME280;6743;49.934;9.138;2023-09-08T01:00:47;100671.16;;;18.04;100.00
13348;BME280;6743;49.934;9.138;2023-09-08T01:03:13;100669.50;;;18.03;100.00
13348;BME280;6743;49.934;9.138;2023-09-08T01:05:39;100670.91;;;17.99;100.00
13348;BME280;6743;49.934;9.138;2023-09-08T01:08:05;100671.75;;;17.93;100.00
13348;BME280;6743;49.934;9.138;2023-09-08T01:10:32;100675.25;;;17.93;100.00
13348;BME280;6743;49.934;9.138;2023-09-08T01:12:58;100667.37;;;17.92;100.00
13348;BME280;6743;49.934;9.138;2023-09-08T01:15:24;100669.88;;;17.93;100.00
13348;BME280;6743;49.934;9.138;2023-09-08T01:17:51;100661.81;;;17.87;100.00
13348;BME280;6743;49.934;9.138;2023-09-08T01:20:20;100658.50;;;17.85;100.00
13348;BME280;6743;49.934;9.138;2023-09-08T01:23:00;100659.12;;;17.87;100.00
13348;BME280;6743;49.934;9.138;2023-09-08T01:25:28;100669.47;;;17.90;100.00
13348;BME280;6743;49.934;9.138;2023-09-08T01:27:57;100663.28;;;17.89;100.00
13348;BME280;6743;49.934;9.138;2023-09-08T01:30:25;100665.72;;;17.84;100.00
13348;BME280;6743;49.934;9.138;2023-09-08T01:32:52;100671.31;;;17.83;100.00
13348;BME280;6743;49.934;9.138;2023-09-08T01:35:19;100673.56;;;17.79;100.00
13348;BME280;6743;49.934;9.138;2023-09-08T01:37:47;100675.59;;;17.77;100.00
13348;BME280;6743;49.934;9.138;2023-09-08T01:40:13;100673.53;;;17.73;100.00
13348;BME280;6743;49.934;9.138;2023-09-08T01:42:40;100674.78;;;17.70;100.00
13348;BME280;6743;49.934;9.138;2023-09-08T01:45:07;100677.66;;;17.68;100.00
13348;BME280;6743;49.934;9.138;2023-09-08T01:47:34;100673.69;;;17.64;100.00
13348;BME280;6743;49.934;9.138;2023-09-08T01:50:00;100673.09;;;17.62;100.00
13348;BME280;6743;49.934;9.138;2023-09-08T01:52:27;100672.44;;;17.60;100.00
13348;BME280;6743;49.934;9.138;2023-09-08T01:54:53;100663.94;;;17.57;100.00
13348;BME280;6743;49.934;9.138;2023-09-08T01:57:19;100657.75;;;17.56;100.00
13348;BME280;6743;49.934;9.138;2023-09-08T01:59:45;100656.72;;;17.57;100.00
13348;BME280;6743;49.934;9.138;2023-09-08T02:02:11;100655.06;;;17.56;100.00
13348;BME280;6743;49.934;9.138;2023-09-08T02:04:37;100660.22;;;17.51;100.00
13348;BME280;6743;49.934;9.138;2023-09-08T02:07:04;100658.53;;;17.50;100.00
13348;BME280;6743;49.934;9.138;2023-09-08T02:09:30;100661.03;;;17.52;100.00
13348;BME280;6743;49.934;9.138;2023-09-08T02:11:56;100656.28;;;17.47;100.00
13348;BME280;6743;49.934;9.138;2023-09-08T02:14:22;100658.78;;;17.49;100.00
13348;BME280;6743;49.934;9.138;2023-09-08T02:16:49;100657.53;;;17.51;100.00
13348;BME280;6743;49.934;9.138;2023-09-08T02:19:15;100657.72;;;17.50;100.00
13348;BME280;6743;49.934;9.138;2023-09-08T02:21:41;100652.56;;;17.48;100.00
13348;BME280;6743;49.934;9.138;2023-09-08T02:24:07;100660.22;;;17.51;100.00
13348;BME280;6743;49.934;9.138;2023-09-08T02:26:33;100653.19;;;17.50;100.00
13348;BME280;6743;49.934;9.138;2023-09-08T02:28:59;100658.16;;;17.53;100.00
13348;BME280;6743;49.934;9.138;2023-09-08T02:31:26;100658.34;;;17.52;100.00
13348;BME280;6743;49.934;9.138;2023-09-08T02:33:52;100648.66;;;17.51;100.00
13348;BME280;6743;49.934;9.138;2023-09-08T02:36:18;100654.00;;;17.51;100.00
13348;BME280;6743;49.934;9.138;2023-09-08T02:38:50;100659.59;;;17.49;100.00
13348;BME280;6743;49.934;9.138;2023-09-08T02:41:16;100655.25;;;17.48;100.00
13348;BME280;6743;49.934;9.138;2023-09-08T02:43:42;100648.81;;;17.43;100.00
13348;BME280;6743;49.934;9.138;2023-09-08T02:46:08;100641.97;;;17.33;100.00
13348;BME280;6743;49.934;9.138;2023-09-08T02:48:35;100649.84;;;17.35;100.00
13348;BME280;6743;49.934;9.138;2023-09-08T02:51:01;100647.72;;;17.30;100.00
13348;BME280;6743;49.934;9.138;2023-09-08T02:53:27;100656.38;;;17.26;100.00
13348;BME280;6743;49.934;9.138;2023-09-08T02:55:54;100647.28;;;17.20;100.00
13348;BME280;6743;49.934;9.138;2023-09-08T02:58:20;100653.44;;;17.14;100.00
13348;BME280;6743;49.934;9.138;2023-09-08T03:00:46;100654.00;;;17.10;100.00
13348;BME280;6743;49.934;9.138;2023-09-08T03:03:12;100662.66;;;17.05;100.00
13348;BME280;6743;49.934;9.138;2023-09-08T03:05:38;100657.69;;;17.02;100.00
13348;BME280;6743;49.934;9.138;2023-09-08T03:08:05;100654.16;;;17.02;100.00
13348;BME280;6743;49.934;9.138;2023-09-08T03:10:31;100652.53;;;17.01;100.00
13348;BME280;6743;49.934;9.138;2023-09-08T03:12:59;100655.78;;;16.96;100.00
13348;BME280;6743;49.934;9.138;2023-09-08T03:15:25;100650.03;;;16.99;100.00
13348;BME280;6743;49.934;9.138;2023-09-08T03:17:53;100653.75;;;16.98;100.00
13348;BME280;6743;49.934;9.138;2023-09-08T03:20:19;100653.09;;;16.96;100.00
13348;BME280;6743;49.934;9.138;2023-09-08T03:22:45;100650.84;;;16.93;100.00
13348;BME280;6743;49.934;9.138;2023-09-08T03:25:13;100626.19;;;16.76;100.00
13348;BME280;6743;49.934;9.138;2023-09-08T03:27:39;100651.41;;;16.88;100.00
13348;BME280;6743;49.934;9.138;2023-09-08T03:30:06;100646.66;;;16.84;100.00
13348;BME280;6743;49.934;9.138;2023-09-08T03:32:33;100648.13;;;16.86;100.00
13348;BME280;6743;49.934;9.138;2023-09-08T03:34:58;100653.84;;;16.83;100.00
13348;BME280;6743;49.934;9.138;2023-09-08T03:37:25;100653.47;;;16.86;100.00
13348;BME280;6743;49.934;9.138;2023-09-08T03:39:51;100647.84;;;16.81;100.00
13348;BME280;6743;49.934;9.138;2023-09-08T03:42:18;100649.50;;;16.82;100.00
13348;BME280;6743;49.934;9.138;2023-09-08T03:44:44;100652.19;;;16.82;100.00
13348;BME280;6743;49.934;9.138;2023-09-08T03:47:10;100643.31;;;16.82;100.00
13348;BME280;6743;49.934;9.138;2023-09-08T03:49:36;100651.13;;;16.77;100.00
13348;BME280;6743;49.934;9.138;2023-09-08T03:52:03;100646.78;;;16.76;100.00
13348;BME280;6743;49.934;9.138;2023-09-08T03:54:29;100645.78;;;16.77;100.00
13348;BME280;6743;49.934;9.138;2023-09-08T03:56:55;100642.91;;;16.78;100.00
13348;BME280;6743;49.934;9.138;2023-09-08T03:59:22;100639.22;;;16.79;100.00
13348;BME280;6743;49.934;9.138;2023-09-08T04:01:48;100645.78;;;16.77;100.00
13348;BME280;6743;49.934;9.138;2023-09-08T04:04:14;100641.84;;;16.73;100.00
13348;BME280;6743;49.934;9.138;2023-09-08T04:06:41;100643.47;;;16.74;100.00
13348;BME280;6743;49.934;9.138;2023-09-08T04:09:07;100644.53;;;16.73;100.00
13348;BME280;6743;49.934;9.138;2023-09-08T04:11:33;100642.03;;;16.71;100.00
13348;BME280;6743;49.934;9.138;2023-09-08T04:13:59;100634.78;;;16.65;100.00
13348;BME280;6743;49.934;9.138;2023-09-08T04:16:26;100649.38;;;16.63;100.00
13348;BME280;6743;49.934;9.138;2023-09-08T04:18:52;100654.28;;;16.59;100.00
13348;BME280;6743;49.934;9.138;2023-09-08T04:21:18;100653.81;;;16.55;100.00
13348;BME280;6743;49.934;9.138;2023-09-08T04:23:45;100643.87;;;16.49;100.00
13348;BME280;6743;49.934;9.138;2023-09-08T04:26:12;100656.91;;;16.52;100.00
13348;BME280;6743;49.934;9.138;2023-09-08T04:28:38;100662.03;;;16.54;100.00
13348;BME280;6743;49.934;9.138;2023-09-08T04:31:04;100670.91;;;16.54;100.00
13348;BME280;6743;49.934;9.138;2023-09-08T04:33:31;100673.78;;;16.53;100.00
13348;BME280;6743;49.934;9.138;2023-09-08T04:35:57;100677.09;;;16.55;100.00
13348;BME280;6743;49.934;9.138;2023-09-08T04:38:23;100679.41;;;16.58;100.00
13348;BME280;6743;49.934;9.138;2023-09-08T04:40:49;100679.41;;;16.58;100.00
13348;BME280;6743;49.934;9.138;2023-09-08T04:43:15;100671.56;;;16.57;100.00
13348;BME280;6743;49.934;9.138;2023-09-08T04:45:41;100674.41;;;16.55;100.00
13348;BME280;6743;49.934;9.138;2023-09-08T04:48:07;100679.12;;;16.53;100.00
13348;BME280;6743;49.934;9.138;2023-09-08T04:50:33;100683.88;;;16.51;100.00
13348;BME280;6743;49.934;9.138;2023-09-08T04:53:00;100671.50;;;16.50;100.00
13348;BME280;6743;49.934;9.138;2023-09-08T04:55:26;100677.50;;;16.52;100.00
13348;BME280;6743;49.934;9.138;2023-09-08T04:57:52;100688.22;;;16.52;100.00
13348;BME280;6743;49.934;9.138;2023-09-08T05:00:18;100689.41;;;16.49;100.00
13348;BME280;6743;49.934;9.138;2023-09-08T05:02:44;100692.09;;;16.49;100.00
13348;BME280;6743;49.934;9.138;2023-09-08T05:05:10;100690.63;;;16.47;100.00
13348;BME280;6743;49.934;9.138;2023-09-08T05:07:37;100696.62;;;16.49;100.00
13348;BME280;6743;49.934;9.138;2023-09-08T05:10:03;100699.47;;;16.47;100.00
13348;BME280;6743;49.934;9.138;2023-09-08T05:12:29;100701.13;;;16.48;100.00
13348;BME280;6743;49.934;9.138;2023-09-08T05:14:55;100702.34;;;16.46;100.00
13348;BME280;6743;49.934;9.138;2023-09-08T05:17:25;100706.50;;;16.48;100.00
13348;BME280;6743;49.934;9.138;2023-09-08T05:19:51;100689.72;;;16.40;100.00
13348;BME280;6743;49.934;9.138;2023-09-08T05:22:18;100710.38;;;16.46;100.00
13348;BME280;6743;49.934;9.138;2023-09-08T05:24:44;100703.38;;;16.45;100.00
13348;BME280;6743;49.934;9.138;2023-09-08T05:27:10;100710.38;;;16.46;100.00
13348;BME280;6743;49.934;9.138;2023-09-08T05:29:36;100710.59;;;16.44;100.00
13348;BME280;6743;49.934;9.138;2023-09-08T05:32:03;100703.19;;;16.46;100.00
13348;BME280;6743;49.934;9.138;2023-09-08T05:34:29;100715.19;;;16.50;100.00
13348;BME280;6743;49.934;9.138;2023-09-08T05:36:55;100701.72;;;16.44;100.00
13348;BME280;6743;49.934;9.138;2023-09-08T05:39:21;100714.16;;;16.51;100.00
13348;BME280;6743;49.934;9.138;2023-09-08T05:41:47;100713.16;;;16.52;100.00
13348;BME280;6743;49.934;9.138;2023-09-08T05:44:13;100715.00;;;16.52;100.00
13348;BME280;6743;49.934;9.138;2023-09-08T05:46:39;100724.03;;;16.51;100.00
13348;BME280;6743;49.934;9.138;2023-09-08T05:49:05;100712.88;;;16.47;100.00
13348;BME280;6743;49.934;9.138;2023-09-08T05:51:32;100725.50;;;16.53;100.00
13348;BME280;6743;49.934;9.138;2023-09-08T05:53:58;100717.69;;;16.52;100.00
13348;BME280;6743;49.934;9.138;2023-09-08T05:56:29;100719.94;;;16.55;100.00
13348;BME280;6743;49.934;9.138;2023-09-08T05:58:55;100720.59;;;16.57;100.00
13348;BME280;6743;49.934;9.138;2023-09-08T06:01:21;100730.06;;;16.60;100.00
13348;BME280;6743;49.934;9.138;2023-09-08T06:03:47;100723.53;;;16.62;100.00
13348;BME280;6743;49.934;9.138;2023-09-08T06:06:13;100725.03;;;16.65;100.00
13348;BME280;6743;49.934;9.138;2023-09-08T06:08:39;100723.78;;;16.67;100.00
13348;BME280;6743;49.934;9.138;2023-09-08T06:11:05;100724.25;;;16.71;100.00
13348;BME280;6743;49.934;9.138;2023-09-08T06:13:31;100732.72;;;16.74;100.00
13348;BME280;6743;49.934;9.138;2023-09-08T06:15:58;100726.16;;;16.77;100.00
13348;BME280;6743;49.934;9.138;2023-09-08T06:18:27;100727.41;;;16.81;100.00
13348;BME280;6743;49.934;9.138;2023-09-08T06:20:53;100727.03;;;16.84;100.00
13348;BME280;6743;49.934;9.138;2023-09-08T06:23:20;100711.75;;;16.78;100.00
13348;BME280;6743;49.934;9.138;2023-09-08T06:25:46;100719.41;;;16.87;100.00
13348;BME280;6743;49.934;9.138;2023-09-08T06:28:12;100717.19;;;16.91;100.00
13348;BME280;6743;49.934;9.138;2023-09-08T06:30:38;100714.91;;;16.88;100.00
13348;BME280;6743;49.934;9.138;2023-09-08T06:33:07;100714.06;;;16.87;100.00
13348;BME280;6743;49.934;9.138;2023-09-08T06:35:33;100698.37;;;16.84;100.00
13348;BME280;6743;49.934;9.138;2023-09-08T06:38:00;100722.47;;;17.06;100.00
13348;BME280;6743;49.934;9.138;2023-09-08T06:40:26;100716.09;;;17.07;100.00
13348;BME280;6743;49.934;9.138;2023-09-08T06:42:52;100730.97;;;17.16;100.00
13348;BME280;6743;49.934;9.138;2023-09-08T06:45:18;100726.06;;;17.19;100.00
13348;BME280;6743;49.934;9.138;2023-09-08T06:47:44;100716.59;;;17.23;100.00
13348;BME280;6743;49.934;9.138;2023-09-08T06:50:11;100705.63;;;17.18;100.00
13348;BME280;6743;49.934;9.138;2023-09-08T06:52:37;100726.16;;;17.32;100.00
13348;BME280;6743;49.934;9.138;2023-09-08T06:55:03;100726.38;;;17.38;100.00
13348;BME280;6743;49.934;9.138;2023-09-08T06:57:30;100723.12;;;17.42;100.00
13348;BME280;6743;49.934;9.138;2023-09-08T06:59:56;100723.34;;;17.47;100.00
13348;BME280;6743;49.934;9.138;2023-09-08T07:02:22;100730.78;;;17.52;100.00
13348;BME280;6743;49.934;9.138;2023-09-08T07:04:48;100718.37;;;17.51;100.00
13348;BME280;6743;49.934;9.138;2023-09-08T07:07:15;100735.63;;;17.63;100.00
13348;BME280;6743;49.934;9.138;2023-09-08T07:09:41;100721.63;;;17.67;100.00
13348;BME280;6743;49.934;9.138;2023-09-08T07:12:07;100725.34;;;17.73;100.00
13348;BME280;6743;49.934;9.138;2023-09-08T07:14:33;100709.06;;;17.75;100.00
13348;BME280;6743;49.934;9.138;2023-09-08T07:16:59;100718.59;;;17.84;100.00
13348;BME280;6743;49.934;9.138;2023-09-08T07:19:26;100714.47;;;17.88;100.00
13348;BME280;6743;49.934;9.138;2023-09-08T07:21:52;100701.44;;;17.85;100.00
13348;BME280;6743;49.934;9.138;2023-09-08T07:24:18;100712.22;;;17.98;100.00
13348;BME280;6743;49.934;9.138;2023-09-08T07:26:44;100711.19;;;17.99;100.00
13348;BME280;6743;49.934;9.138;2023-09-08T07:29:10;100712.88;;;18.06;100.00
13348;BME280;6743;49.934;9.138;2023-09-08T07:31:37;100711.03;;;18.14;100.00
13348;BME280;6743;49.934;9.138;2023-09-08T07:34:03;100695.72;;;18.07;100.00
13348;BME280;6743;49.934;9.138;2023-09-08T07:36:29;100699.25;;;18.15;100.00
13348;BME280;6743;49.934;9.138;2023-09-08T07:38:55;100712.09;;;18.26;100.00
13348;BME280;6743;49.934;9.138;2023-09-08T07:41:22;100708.37;;;18.33;100.00
13348;BME280;6743;49.934;9.138;2023-09-08T07:43:49;100720.19;;;18.39;100.00
13348;BME280;6743;49.934;9.138;2023-09-08T07:46:16;100709.66;;;18.44;100.00
13348;BME280;6743;49.934;9.138;2023-09-08T07:48:42;100707.59;;;18.46;100.00
13348;BME280;6743;49.934;9.138;2023-09-08T07:51:08;100699.94;;;18.49;100.00
13348;BME280;6743;49.934;9.138;2023-09-08T07:53:34;100695.59;;;18.55;100.00
13348;BME280;6743;49.934;9.138;2023-09-08T07:56:00;100701.19;;;18.60;100.00
13348;BME280;6743;49.934;9.138;2023-09-08T07:58:27;100695.22;;;18.65;100.00
13348;BME280;6743;49.934;9.138;2023-09-08T08:00:53;100690.06;;;18.70;100.00
13348;BME280;6743;49.934;9.138;2023-09-08T08:03:19;100685.91;;;18.67;100.00
13348;BME280;6743;49.934;9.138;2023-09-08T08:05:46;100690.69;;;18.78;100.00
13348;BME280;6743;49.934;9.138;2023-09-08T08:08:12;100678.47;;;18.76;100.00
13348;BME280;6743;49.934;9.138;2023-09-08T08:10:38;100693.16;;;18.93;100.00
13348;BME280;6743;49.934;9.138;2023-09-08T08:13:06;100665.00;;;18.89;100.00
13348;BME280;6743;49.934;9.138;2023-09-08T08:15:37;100661.69;;;19.00;100.00
13348;BME280;6743;49.934;9.138;2023-09-08T08:18:04;100671.78;;;19.24;100.00
13348;BME280;6743;49.934;9.138;2023-09-08T08:20:30;100680.81;;;19.43;100.00
13348;BME280;6743;49.934;9.138;2023-09-08T08:23:00;100674.37;;;19.57;100.00
13348;BME280;6743;49.934;9.138;2023-09-08T08:25:26;100676.41;;;19.69;100.00
13348;BME280;6743;49.934;9.138;2023-09-08T08:27:52;100667.47;;;19.75;100.00
13348;BME280;6743;49.934;9.138;2023-09-08T08:30:18;100676.66;;;19.98;100.00
13348;BME280;6743;49.934;9.138;2023-09-08T08:32:45;100667.13;;;20.02;100.00
13348;BME280;6743;49.934;9.138;2023-09-08T08:35:11;100685.88;;;20.16;100.00
13348;BME280;6743;49.934;9.138;2023-09-08T08:37:40;100674.37;;;20.33;100.00
13348;BME280;6743;49.934;9.138;2023-09-08T08:40:08;100670.22;;;20.37;100.00
13348;BME280;6743;49.934;9.138;2023-09-08T08:42:36;100678.00;;;20.52;100.00
13348;BME280;6743;49.934;9.138;2023-09-08T08:45:03;100673.38;;;20.59;100.00
13348;BME280;6743;49.934;9.138;2023-09-08T08:47:30;100671.06;;;20.63;100.00
13348;BME280;6743;49.934;9.138;2023-09-08T08:49:57;100683.00;;;20.73;100.00
13348;BME280;6743;49.934;9.138;2023-09-08T08:52:24;100676.50;;;20.81;100.00
13348;BME280;6743;49.934;9.138;2023-09-08T08:54:54;100673.44;;;20.96;100.00
13348;BME280;6743;49.934;9.138;2023-09-08T08:57:22;100668.44;;;20.99;100.00
13348;BME280;6743;49.934;9.138;2023-09-08T08:59:49;100669.62;;;21.03;100.00
13348;BME280;6743;49.934;9.138;2023-09-08T09:02:17;100670.19;;;21.12;100.00
13348;BME280;6743;49.934;9.138;2023-09-08T09:04:43;100671.81;;;21.13;100.00
13348;BME280;6743;49.934;9.138;2023-09-08T09:07:11;100668.91;;;21.14;100.00
13348;BME280;6743;49.934;9.138;2023-09-08T09:09:37;100661.03;;;21.13;100.00
13348;BME280;6743;49.934;9.138;2023-09-08T09:12:05;100670.97;;;21.19;100.00
13348;BME280;6743;49.934;9.138;2023-09-08T09:14:32;100668.88;;;21.21;100.00
13348;BME280;6743;49.934;9.138;2023-09-08T09:16:59;100665.97;;;21.23;100.00
13348;BME280;6743;49.934;9.138;2023-09-08T09:19:26;100653.94;;;21.18;100.00
13348;BME280;6743;49.934;9.138;2023-09-08T09:21:55;100657.47;;;21.37;100.00
13348;BME280;6743;49.934;9.138;2023-09-08T09:24:30;100668.13;;;21.50;100.00
13348;BME280;6743;49.934;9.138;2023-09-08T09:26:57;100648.75;;;21.53;100.00
13348;BME280;6743;49.934;9.138;2023-09-08T09:29:23;100654.47;;;21.64;100.00
13348;BME280;6743;49.934;9.138;2023-09-08T09:31:52;100663.56;;;21.81;100.00
13348;BME280;6743;49.934;9.138;2023-09-08T09:34:20;100655.84;;;21.84;100.00
13348;BME280;6743;49.934;9.138;2023-09-08T09:36:47;100660.63;;;22.00;100.00
13348;BME280;6743;49.934;9.138;2023-09-08T09:39:16;100661.34;;;22.08;100.00
13348;BME280;6743;49.934;9.138;2023-09-08T09:41:43;100656.22;;;22.18;100.00
13348;BME280;6743;49.934;9.138;2023-09-08T09:44:10;100635.38;;;22.07;100.00
13348;BME280;6743;49.934;9.138;2023-09-08T09:46:36;100663.91;;;22.32;100.00
13348;BME280;6743;49.934;9.138;2023-09-08T09:49:03;100642.28;;;22.32;100.00
13348;BME280;6743;49.934;9.138;2023-09-08T09:51:29;100655.09;;;22.49;100.00
13348;BME280;6743;49.934;9.138;2023-09-08T09:53:55;100651.22;;;22.56;100.00
13348;BME280;6743;49.934;9.138;2023-09-08T09:56:24;100651.72;;;22.65;100.00
13348;BME280;6743;49.934;9.138;2023-09-08T09:58:53;100644.19;;;22.67;100.00
13348;BME280;6743;49.934;9.138;2023-09-08T10:01:20;100646.09;;;22.78;100.00
13348;BME280;6743;49.934;9.138;2023-09-08T10:03:48;100641.97;;;22.87;100.00
13348;BME280;6743;49.934;9.138;2023-09-08T10:06:15;100653.16;;;22.91;100.00
13348;BME280;6743;49.934;9.138;2023-09-08T10:08:42;100645.50;;;22.99;100.00
13348;BME280;6743;49.934;9.138;2023-09-08T10:11:09;100640.56;;;23.08;100.00
13348;BME280;6743;49.934;9.138;2023-09-08T10:13:39;100635.00;;;23.14;100.00
13348;BME280;6743;49.934;9.138;2023-09-08T10:16:08;100638.66;;;23.20;100.00
13348;BME280;6743;49.934;9.138;2023-09-08T10:18:35;100643.59;;;23.23;100.00
13348;BME280;6743;49.934;9.138;2023-09-08T10:21:03;100632.41;;;23.20;100.00
13348;BME280;6743;49.934;9.138;2023-09-08T10:23:35;100640.75;;;23.30;100.00
13348;BME280;6743;49.934;9.138;2023-09-08T10:26:06;100632.69;;;23.46;100.00
13348;BME280;6743;49.934;9.138;2023-09-08T10:28:38;100633.91;;;23.50;100.00
13348;BME280;6743;49.934;9.138;2023-09-08T10:31:07;100634.19;;;23.66;100.00
13348;BME280;6743;49.934;9.138;2023-09-08T10:33:35;100641.47;;;23.65;100.00
13348;BME280;6743;49.934;9.138;2023-09-08T10:36:03;100637.84;;;23.71;100.00
13348;BME280;6743;49.934;9.138;2023-09-08T10:38:32;100609.25;;;23.52;100.00
13348;BME280;6743;49.934;9.138;2023-09-08T10:41:28;100641.38;;;23.72;100.00
13348;BME280;6743;49.934;9.138;2023-09-08T10:44:00;100639.22;;;23.74;100.00
13348;BME280;6743;49.934;9.138;2023-09-08T10:46:28;100632.50;;;23.76;100.00
13348;BME280;6743;49.934;9.138;2023-09-08T10:49:01;100632.19;;;23.89;100.00
13348;BME280;6743;49.934;9.138;2023-09-08T12:53:40;100563.72;;;25.97;94.21
13348;BME280;6743;49.934;9.138;2023-09-08T12:56:09;100555.22;;;25.88;92.15
